sensor_id;sensor_type;location;lat;lon;timestamp;pressure;altitude;pressure_sealevel;temperature;humidity
34034;BME280;63481;52.588;22.472;2023-04-15T00:00:35;99678.60;;;9.43;80.75
34034;BME280;63481;52.588;22.472;2023-04-15T00:01:28;99677.70;;;9.42;80.84
34034;BME280;63481;52.588;22.472;2023-04-15T00:02:26;99681.70;;;9.44;80.85
34034;BME280;63481;52.588;22.472;2023-04-15T00:03:19;99678.96;;;9.43;80.52
34034;BME280;63481;52.588;22.472;2023-04-15T00:04:12;99679.58;;;9.44;80.80
34034;BME280;63481;52.588;22.472;2023-04-15T00:05:05;99678.05;;;9.47;80.58
34034;BME280;63481;52.588;22.472;2023-04-15T00:05:57;99679.91;;;9.50;80.87
34034;BME280;63481;52.588;22.472;2023-04-15T00:06:51;99676.30;;;9.51;80.72
34034;BME280;63481;52.588;22.472;2023-04-15T00:07:44;99673.77;;;9.51;80.70
34034;BME280;63481;52.588;22.472;2023-04-15T00:08:38;99676.34;;;9.51;80.65
34034;BME280;63481;52.588;22.472;2023-04-15T00:09:31;99675.98;;;9.50;80.82
34034;BME280;63481;52.588;22.472;2023-04-15T00:10:24;99675.33;;;9.48;80.69
34034;BME280;63481;52.588;22.472;2023-04-15T00:11:17;99676.81;;;9.47;80.83
34034;BME280;63481;52.588;22.472;2023-04-15T00:12:11;99675.63;;;9.46;81.06
34034;BME280;63481;52.588;22.472;2023-04-15T00:13:04;99672.53;;;9.43;80.98
34034;BME280;63481;52.588;22.472;2023-04-15T00:13:56;99673.73;;;9.39;81.04
34034;BME280;63481;52.588;22.472;2023-04-15T00:14:49;99669.98;;;9.39;81.12
34034;BME280;63481;52.588;22.472;2023-04-15T00:15:42;99667.87;;;9.36;81.23
34034;BME280;63481;52.588;22.472;2023-04-15T00:16:35;99659.75;;;9.36;81.42
34034;BME280;63481;52.588;22.472;2023-04-15T00:17:28;99660.34;;;9.40;81.33
34034;BME280;63481;52.588;22.472;2023-04-15T00:18:21;99657.36;;;9.41;81.37
34034;BME280;63481;52.588;22.472;2023-04-15T00:19:14;99657.65;;;9.39;81.41
34034;BME280;63481;52.588;22.472;2023-04-15T00:20:07;99653.98;;;9.38;81.38
34034;BME280;63481;52.588;22.472;2023-04-15T00:21:00;99660.00;;;9.36;81.62
34034;BME280;63481;52.588;22.472;2023-04-15T00:21:52;99658.58;;;9.36;81.32
34034;BME280;63481;52.588;22.472;2023-04-15T00:22:45;99656.48;;;9.33;81.88
34034;BME280;63481;52.588;22.472;2023-04-15T00:23:38;99656.90;;;9.34;81.83
34034;BME280;63481;52.588;22.472;2023-04-15T00:24:31;99660.69;;;9.31;81.84
34034;BME280;63481;52.588;22.472;2023-04-15T00:25:24;99663.84;;;9.30;81.85
34034;BME280;63481;52.588;22.472;2023-04-15T00:26:16;99663.16;;;9.33;82.07
34034;BME280;63481;52.588;22.472;2023-04-15T00:27:11;99667.28;;;9.31;82.40
34034;BME280;63481;52.588;22.472;2023-04-15T00:28:04;99673.02;;;9.30;82.29
34034;BME280;63481;52.588;22.472;2023-04-15T00:28:57;99663.14;;;9.32;81.92
34034;BME280;63481;52.588;22.472;2023-04-15T00:29:49;99664.13;;;9.31;82.41
34034;BME280;63481;52.588;22.472;2023-04-15T00:30:42;99665.85;;;9.30;82.25
34034;BME280;63481;52.588;22.472;2023-04-15T00:31:35;99663.72;;;9.30;82.32
34034;BME280;63481;52.588;22.472;2023-04-15T00:32:28;99663.42;;;9.31;82.38
34034;BME280;63481;52.588;22.472;2023-04-15T00:33:21;99664.79;;;9.28;82.60
34034;BME280;63481;52.588;22.472;2023-04-15T00:34:14;99666.48;;;9.27;82.54
34034;BME280;63481;52.588;22.472;2023-04-15T00:35:08;99665.29;;;9.26;82.52
34034;BME280;63481;52.588;22.472;2023-04-15T00:36:01;99668.65;;;9.28;82.70
34034;BME280;63481;52.588;22.472;2023-04-15T00:36:54;99664.83;;;9.30;82.74
34034;BME280;63481;52.588;22.472;2023-04-15T00:37:47;99668.35;;;9.27;82.86
34034;BME280;63481;52.588;22.472;2023-04-15T00:38:40;99666.95;;;9.30;82.75
34034;BME280;63481;52.588;22.472;2023-04-15T00:39:32;99667.17;;;9.28;82.63
34034;BME280;63481;52.588;22.472;2023-04-15T00:40:25;99661.06;;;9.27;82.95
34034;BME280;63481;52.588;22.472;2023-04-15T00:41:19;99665.77;;;9.29;82.72
34034;BME280;63481;52.588;22.472;2023-04-15T00:42:12;99667.13;;;9.27;82.92
34034;BME280;63481;52.588;22.472;2023-04-15T00:43:05;99659.27;;;9.29;83.00
34034;BME280;63481;52.588;22.472;2023-04-15T00:43:59;99666.39;;;9.29;83.09
34034;BME280;63481;52.588;22.472;2023-04-15T00:44:52;99665.12;;;9.28;83.05
34034;BME280;63481;52.588;22.472;2023-04-15T00:45:44;99664.66;;;9.30;82.98
34034;BME280;63481;52.588;22.472;2023-04-15T00:46:39;99663.88;;;9.31;82.78
34034;BME280;63481;52.588;22.472;2023-04-15T00:47:34;99663.78;;;9.32;82.60
34034;BME280;63481;52.588;22.472;2023-04-15T00:48:28;99664.98;;;9.31;83.08
34034;BME280;63481;52.588;22.472;2023-04-15T00:49:21;99666.76;;;9.29;83.19
34034;BME280;63481;52.588;22.472;2023-04-15T00:50:15;99661.39;;;9.28;83.16
34034;BME280;63481;52.588;22.472;2023-04-15T00:51:07;99657.80;;;9.28;83.07
34034;BME280;63481;52.588;22.472;2023-04-15T00:52:01;99658.34;;;9.26;83.16
34034;BME280;63481;52.588;22.472;2023-04-15T00:52:53;99659.33;;;9.25;83.40
34034;BME280;63481;52.588;22.472;2023-04-15T00:53:46;99657.16;;;9.23;83.29
34034;BME280;63481;52.588;22.472;2023-04-15T00:54:39;99653.91;;;9.21;83.40
34034;BME280;63481;52.588;22.472;2023-04-15T00:55:32;99660.45;;;9.21;83.56
34034;BME280;63481;52.588;22.472;2023-04-15T00:56:25;99656.41;;;9.19;83.77
34034;BME280;63481;52.588;22.472;2023-04-15T00:57:20;99656.16;;;9.21;83.70
34034;BME280;63481;52.588;22.472;2023-04-15T00:58:14;99660.09;;;9.18;83.53
34034;BME280;63481;52.588;22.472;2023-04-15T00:59:08;99656.28;;;9.20;83.45
34034;BME280;63481;52.588;22.472;2023-04-15T01:00:01;99657.83;;;9.23;83.42
34034;BME280;63481;52.588;22.472;2023-04-15T01:00:56;99653.83;;;9.21;83.36
34034;BME280;63481;52.588;22.472;2023-04-15T01:01:49;99654.41;;;9.24;83.36
34034;BME280;63481;52.588;22.472;2023-04-15T01:02:43;99653.47;;;9.25;83.57
34034;BME280;63481;52.588;22.472;2023-04-15T01:03:36;99656.19;;;9.23;83.60
34034;BME280;63481;52.588;22.472;2023-04-15T01:04:29;99654.47;;;9.22;83.62
34034;BME280;63481;52.588;22.472;2023-04-15T01:05:21;99656.55;;;9.23;83.43
34034;BME280;63481;52.588;22.472;2023-04-15T01:06:15;99649.70;;;9.18;83.77
34034;BME280;63481;52.588;22.472;2023-04-15T01:07:10;99650.97;;;9.17;83.67
34034;BME280;63481;52.588;22.472;2023-04-15T01:08:03;99649.01;;;9.17;83.66
34034;BME280;63481;52.588;22.472;2023-04-15T01:08:57;99652.40;;;9.17;83.88
34034;BME280;63481;52.588;22.472;2023-04-15T01:09:50;99650.39;;;9.17;83.88
34034;BME280;63481;52.588;22.472;2023-04-15T01:10:42;99648.02;;;9.18;83.96
34034;BME280;63481;52.588;22.472;2023-04-15T01:11:36;99644.14;;;9.17;83.61
34034;BME280;63481;52.588;22.472;2023-04-15T01:12:31;99643.65;;;9.15;83.96
34034;BME280;63481;52.588;22.472;2023-04-15T01:13:24;99646.10;;;9.15;83.63
34034;BME280;63481;52.588;22.472;2023-04-15T01:14:18;99645.38;;;9.14;83.98
34034;BME280;63481;52.588;22.472;2023-04-15T01:15:11;99646.89;;;9.12;84.16
34034;BME280;63481;52.588;22.472;2023-04-15T01:16:04;99646.62;;;9.11;84.23
34034;BME280;63481;52.588;22.472;2023-04-15T01:16:56;99645.06;;;9.10;84.11
34034;BME280;63481;52.588;22.472;2023-04-15T01:17:49;99646.02;;;9.10;84.14
34034;BME280;63481;52.588;22.472;2023-04-15T01:18:42;99645.56;;;9.09;84.40
34034;BME280;63481;52.588;22.472;2023-04-15T01:19:35;99641.49;;;9.13;84.18
34034;BME280;63481;52.588;22.472;2023-04-15T01:20:29;99643.48;;;9.16;84.02
34034;BME280;63481;52.588;22.472;2023-04-15T01:21:22;99643.38;;;9.13;84.04
34034;BME280;63481;52.588;22.472;2023-04-15T01:22:16;99643.82;;;9.14;83.97
34034;BME280;63481;52.588;22.472;2023-04-15T01:23:09;99646.68;;;9.15;83.96
34034;BME280;63481;52.588;22.472;2023-04-15T01:24:07;99643.25;;;9.12;84.18
34034;BME280;63481;52.588;22.472;2023-04-15T01:25:11;99644.59;;;9.08;83.98
34034;BME280;63481;52.588;22.472;2023-04-15T01:26:06;99644.95;;;9.06;84.47
34034;BME280;63481;52.588;22.472;2023-04-15T01:27:03;99643.39;;;9.02;84.29
34034;BME280;63481;52.588;22.472;2023-04-15T01:27:57;99641.23;;;9.01;84.25
34034;BME280;63481;52.588;22.472;2023-04-15T01:28:50;99640.56;;;9.01;84.24
34034;BME280;63481;52.588;22.472;2023-04-15T01:29:43;99642.40;;;9.03;84.10
34034;BME280;63481;52.588;22.472;2023-04-15T01:30:37;99641.52;;;9.02;84.65
34034;BME280;63481;52.588;22.472;2023-04-15T01:31:31;99639.07;;;8.97;84.66
34034;BME280;63481;52.588;22.472;2023-04-15T01:32:25;99643.98;;;8.94;84.67
34034;BME280;63481;52.588;22.472;2023-04-15T01:33:19;99640.92;;;8.94;84.62
34034;BME280;63481;52.588;22.472;2023-04-15T01:34:12;99637.90;;;8.94;84.49
34034;BME280;63481;52.588;22.472;2023-04-15T01:35:06;99645.16;;;8.95;84.40
34034;BME280;63481;52.588;22.472;2023-04-15T01:36:00;99645.48;;;8.98;84.14
34034;BME280;63481;52.588;22.472;2023-04-15T01:36:53;99647.30;;;8.97;84.74
34034;BME280;63481;52.588;22.472;2023-04-15T01:37:48;99643.60;;;8.95;84.71
34034;BME280;63481;52.588;22.472;2023-04-15T01:38:42;99644.45;;;8.98;84.70
34034;BME280;63481;52.588;22.472;2023-04-15T01:39:35;99645.60;;;8.97;84.63
34034;BME280;63481;52.588;22.472;2023-04-15T01:40:27;99639.73;;;9.00;84.40
34034;BME280;63481;52.588;22.472;2023-04-15T01:41:23;99645.30;;;8.99;84.36
34034;BME280;63481;52.588;22.472;2023-04-15T01:42:17;99643.69;;;8.96;84.53
34034;BME280;63481;52.588;22.472;2023-04-15T01:43:10;99645.04;;;8.95;84.74
34034;BME280;63481;52.588;22.472;2023-04-15T01:44:02;99644.64;;;8.95;84.64
34034;BME280;63481;52.588;22.472;2023-04-15T01:44:55;99647.28;;;8.97;84.66
34034;BME280;63481;52.588;22.472;2023-04-15T01:45:48;99649.77;;;8.99;84.50
34034;BME280;63481;52.588;22.472;2023-04-15T01:46:41;99646.28;;;9.00;84.80
34034;BME280;63481;52.588;22.472;2023-04-15T01:47:33;99647.85;;;9.02;84.43
34034;BME280;63481;52.588;22.472;2023-04-15T01:48:26;99647.56;;;9.01;84.72
34034;BME280;63481;52.588;22.472;2023-04-15T01:49:19;99647.73;;;9.01;84.70
34034;BME280;63481;52.588;22.472;2023-04-15T01:50:11;99650.08;;;8.98;84.42
34034;BME280;63481;52.588;22.472;2023-04-15T01:51:04;99652.09;;;9.03;84.51
34034;BME280;63481;52.588;22.472;2023-04-15T01:51:57;99652.55;;;9.04;84.43
34034;BME280;63481;52.588;22.472;2023-04-15T01:52:52;99649.75;;;9.03;84.45
34034;BME280;63481;52.588;22.472;2023-04-15T01:53:45;99654.34;;;9.04;84.15
34034;BME280;63481;52.588;22.472;2023-04-15T01:54:37;99652.16;;;9.06;84.19
34034;BME280;63481;52.588;22.472;2023-04-15T01:55:30;99647.88;;;9.04;84.43
34034;BME280;63481;52.588;22.472;2023-04-15T01:56:23;99653.01;;;9.05;84.72
34034;BME280;63481;52.588;22.472;2023-04-15T01:57:16;99650.33;;;9.04;84.66
34034;BME280;63481;52.588;22.472;2023-04-15T01:58:08;99652.18;;;9.02;84.46
34034;BME280;63481;52.588;22.472;2023-04-15T01:59:01;99652.18;;;9.00;84.51
34034;BME280;63481;52.588;22.472;2023-04-15T01:59:55;99652.30;;;9.02;84.55
34034;BME280;63481;52.588;22.472;2023-04-15T02:00:48;99652.45;;;8.98;84.51
34034;BME280;63481;52.588;22.472;2023-04-15T02:01:40;99650.68;;;8.96;84.48
34034;BME280;63481;52.588;22.472;2023-04-15T02:02:33;99650.72;;;8.99;84.64
34034;BME280;63481;52.588;22.472;2023-04-15T02:03:27;99652.14;;;9.00;84.62
34034;BME280;63481;52.588;22.472;2023-04-15T02:04:20;99652.84;;;8.99;84.62
34034;BME280;63481;52.588;22.472;2023-04-15T02:05:13;99653.98;;;8.99;84.43
34034;BME280;63481;52.588;22.472;2023-04-15T02:06:12;99656.38;;;8.99;84.70
34034;BME280;63481;52.588;22.472;2023-04-15T02:07:05;99650.84;;;8.96;84.46
34034;BME280;63481;52.588;22.472;2023-04-15T02:07:58;99649.84;;;8.94;84.80
34034;BME280;63481;52.588;22.472;2023-04-15T02:08:51;99649.63;;;8.95;84.50
34034;BME280;63481;52.588;22.472;2023-04-15T02:09:43;99648.60;;;8.96;84.84
34034;BME280;63481;52.588;22.472;2023-04-15T02:10:37;99651.19;;;8.95;84.52
34034;BME280;63481;52.588;22.472;2023-04-15T02:11:31;99648.77;;;8.95;84.80
34034;BME280;63481;52.588;22.472;2023-04-15T02:12:24;99646.88;;;8.95;84.72
34034;BME280;63481;52.588;22.472;2023-04-15T02:13:17;99650.39;;;8.97;84.23
34034;BME280;63481;52.588;22.472;2023-04-15T02:14:13;99646.83;;;8.97;84.43
34034;BME280;63481;52.588;22.472;2023-04-15T02:15:06;99647.70;;;8.96;84.22
34034;BME280;63481;52.588;22.472;2023-04-15T02:15:59;99647.83;;;8.94;84.30
34034;BME280;63481;52.588;22.472;2023-04-15T02:16:51;99649.13;;;8.96;84.55
34034;BME280;63481;52.588;22.472;2023-04-15T02:17:44;99651.34;;;8.96;84.60
34034;BME280;63481;52.588;22.472;2023-04-15T02:18:46;99651.97;;;8.92;84.44
34034;BME280;63481;52.588;22.472;2023-04-15T02:19:39;99652.42;;;8.93;84.44
34034;BME280;63481;52.588;22.472;2023-04-15T02:20:32;99648.45;;;8.89;84.85
34034;BME280;63481;52.588;22.472;2023-04-15T02:21:25;99649.77;;;8.90;84.74
34034;BME280;63481;52.588;22.472;2023-04-15T02:22:18;99649.37;;;8.88;84.75
34034;BME280;63481;52.588;22.472;2023-04-15T02:23:12;99651.13;;;8.87;84.46
34034;BME280;63481;52.588;22.472;2023-04-15T02:24:05;99648.46;;;8.89;84.54
34034;BME280;63481;52.588;22.472;2023-04-15T02:24:58;99647.22;;;8.92;84.32
34034;BME280;63481;52.588;22.472;2023-04-15T02:25:51;99646.62;;;8.94;84.09
34034;BME280;63481;52.588;22.472;2023-04-15T02:26:44;99645.91;;;8.92;84.27
34034;BME280;63481;52.588;22.472;2023-04-15T02:27:37;99649.23;;;8.93;83.94
34034;BME280;63481;52.588;22.472;2023-04-15T02:28:30;99648.81;;;8.92;84.31
34034;BME280;63481;52.588;22.472;2023-04-15T02:29:23;99648.36;;;8.94;84.35
34034;BME280;63481;52.588;22.472;2023-04-15T02:30:15;99650.90;;;8.92;84.11
34034;BME280;63481;52.588;22.472;2023-04-15T02:31:08;99647.83;;;8.94;83.95
34034;BME280;63481;52.588;22.472;2023-04-15T02:32:01;99650.11;;;8.95;84.22
34034;BME280;63481;52.588;22.472;2023-04-15T02:32:54;99647.59;;;8.93;84.02
34034;BME280;63481;52.588;22.472;2023-04-15T02:33:50;99649.55;;;8.95;83.84
34034;BME280;63481;52.588;22.472;2023-04-15T02:34:43;99646.59;;;8.96;83.57
34034;BME280;63481;52.588;22.472;2023-04-15T02:35:36;99646.96;;;8.96;83.72
34034;BME280;63481;52.588;22.472;2023-04-15T02:36:30;99643.26;;;8.94;83.81
34034;BME280;63481;52.588;22.472;2023-04-15T02:37:23;99643.21;;;8.94;84.11
34034;BME280;63481;52.588;22.472;2023-04-15T02:38:18;99643.10;;;8.91;83.76
34034;BME280;63481;52.588;22.472;2023-04-15T02:39:11;99640.16;;;8.91;83.90
34034;BME280;63481;52.588;22.472;2023-04-15T02:40:07;99640.04;;;8.90;84.00
34034;BME280;63481;52.588;22.472;2023-04-15T02:41:01;99639.91;;;8.91;83.89
34034;BME280;63481;52.588;22.472;2023-04-15T02:41:54;99637.99;;;8.88;83.94
34034;BME280;63481;52.588;22.472;2023-04-15T02:42:48;99637.99;;;8.87;84.13
34034;BME280;63481;52.588;22.472;2023-04-15T02:43:41;99640.61;;;8.87;83.81
34034;BME280;63481;52.588;22.472;2023-04-15T02:44:34;99634.84;;;8.88;83.82
34034;BME280;63481;52.588;22.472;2023-04-15T02:45:29;99632.71;;;8.89;83.99
34034;BME280;63481;52.588;22.472;2023-04-15T02:46:22;99637.63;;;8.88;84.10
34034;BME280;63481;52.588;22.472;2023-04-15T02:47:14;99640.38;;;8.85;84.21
34034;BME280;63481;52.588;22.472;2023-04-15T02:48:08;99632.55;;;8.80;84.46
34034;BME280;63481;52.588;22.472;2023-04-15T02:49:01;99635.04;;;8.78;84.35
34034;BME280;63481;52.588;22.472;2023-04-15T02:49:54;99638.43;;;8.79;84.56
34034;BME280;63481;52.588;22.472;2023-04-15T02:50:47;99633.69;;;8.80;84.21
34034;BME280;63481;52.588;22.472;2023-04-15T02:51:40;99631.77;;;8.75;84.54
34034;BME280;63481;52.588;22.472;2023-04-15T02:52:33;99632.23;;;8.73;84.58
34034;BME280;63481;52.588;22.472;2023-04-15T02:53:26;99629.59;;;8.79;84.78
34034;BME280;63481;52.588;22.472;2023-04-15T02:54:19;99626.69;;;8.81;84.63
34034;BME280;63481;52.588;22.472;2023-04-15T02:55:14;99633.55;;;8.83;84.35
34034;BME280;63481;52.588;22.472;2023-04-15T02:56:07;99630.31;;;8.83;84.56
34034;BME280;63481;52.588;22.472;2023-04-15T02:57:00;99626.73;;;8.81;84.44
34034;BME280;63481;52.588;22.472;2023-04-15T02:57:53;99631.55;;;8.81;83.75
34034;BME280;63481;52.588;22.472;2023-04-15T02:58:46;99632.25;;;8.82;84.06
34034;BME280;63481;52.588;22.472;2023-04-15T02:59:41;99628.98;;;8.83;84.37
34034;BME280;63481;52.588;22.472;2023-04-15T03:00:37;99629.92;;;8.83;84.42
34034;BME280;63481;52.588;22.472;2023-04-15T03:01:30;99627.55;;;8.82;84.65
34034;BME280;63481;52.588;22.472;2023-04-15T03:02:23;99627.58;;;8.83;84.58
34034;BME280;63481;52.588;22.472;2023-04-15T03:03:15;99631.77;;;8.81;84.55
34034;BME280;63481;52.588;22.472;2023-04-15T03:04:08;99628.41;;;8.81;84.55
34034;BME280;63481;52.588;22.472;2023-04-15T03:05:01;99628.82;;;8.79;84.57
34034;BME280;63481;52.588;22.472;2023-04-15T03:05:54;99628.42;;;8.78;84.67
34034;BME280;63481;52.588;22.472;2023-04-15T03:06:47;99624.86;;;8.76;84.92
34034;BME280;63481;52.588;22.472;2023-04-15T03:07:40;99630.69;;;8.72;84.90
34034;BME280;63481;52.588;22.472;2023-04-15T03:08:33;99627.02;;;8.73;84.99
34034;BME280;63481;52.588;22.472;2023-04-15T03:09:26;99625.72;;;8.77;84.97
34034;BME280;63481;52.588;22.472;2023-04-15T03:10:20;99628.42;;;8.77;84.56
34034;BME280;63481;52.588;22.472;2023-04-15T03:11:13;99629.25;;;8.73;84.66
34034;BME280;63481;52.588;22.472;2023-04-15T03:12:06;99626.84;;;8.74;84.72
34034;BME280;63481;52.588;22.472;2023-04-15T03:13:00;99626.80;;;8.73;84.75
34034;BME280;63481;52.588;22.472;2023-04-15T03:13:52;99625.86;;;8.74;84.79
34034;BME280;63481;52.588;22.472;2023-04-15T03:14:57;99624.58;;;8.77;84.34
34034;BME280;63481;52.588;22.472;2023-04-15T03:15:57;99625.16;;;8.81;84.20
34034;BME280;63481;52.588;22.472;2023-04-15T03:16:50;99630.20;;;8.81;84.20
34034;BME280;63481;52.588;22.472;2023-04-15T03:17:43;99625.80;;;8.79;84.08
34034;BME280;63481;52.588;22.472;2023-04-15T03:18:36;99624.66;;;8.76;84.42
34034;BME280;63481;52.588;22.472;2023-04-15T03:19:29;99627.16;;;8.76;84.64
34034;BME280;63481;52.588;22.472;2023-04-15T03:20:23;99622.52;;;8.78;84.17
34034;BME280;63481;52.588;22.472;2023-04-15T03:21:16;99624.81;;;8.76;84.17
34034;BME280;63481;52.588;22.472;2023-04-15T03:22:10;99621.91;;;8.77;84.05
34034;BME280;63481;52.588;22.472;2023-04-15T03:23:03;99623.71;;;8.77;84.15
34034;BME280;63481;52.588;22.472;2023-04-15T03:23:55;99624.27;;;8.79;83.90
34034;BME280;63481;52.588;22.472;2023-04-15T03:24:49;99626.00;;;8.78;83.75
34034;BME280;63481;52.588;22.472;2023-04-15T03:25:43;99625.59;;;8.78;84.10
34034;BME280;63481;52.588;22.472;2023-04-15T03:26:36;99620.98;;;8.78;83.93
34034;BME280;63481;52.588;22.472;2023-04-15T03:27:35;99625.26;;;8.80;83.80
34034;BME280;63481;52.588;22.472;2023-04-15T03:28:28;99626.05;;;8.80;83.84
34034;BME280;63481;52.588;22.472;2023-04-15T03:29:21;99625.19;;;8.77;83.92
34034;BME280;63481;52.588;22.472;2023-04-15T03:30:14;99628.42;;;8.75;84.01
34034;BME280;63481;52.588;22.472;2023-04-15T03:31:07;99625.09;;;8.78;84.09
34034;BME280;63481;52.588;22.472;2023-04-15T03:32:00;99630.40;;;8.82;83.95
34034;BME280;63481;52.588;22.472;2023-04-15T03:32:55;99627.67;;;8.78;83.77
34034;BME280;63481;52.588;22.472;2023-04-15T03:33:48;99631.27;;;8.78;83.99
34034;BME280;63481;52.588;22.472;2023-04-15T03:34:41;99626.86;;;8.78;83.95
34034;BME280;63481;52.588;22.472;2023-04-15T03:35:34;99629.77;;;8.76;83.83
34034;BME280;63481;52.588;22.472;2023-04-15T03:36:29;99630.27;;;8.76;84.15
34034;BME280;63481;52.588;22.472;2023-04-15T03:37:24;99625.73;;;8.76;84.11
34034;BME280;63481;52.588;22.472;2023-04-15T03:38:17;99631.33;;;8.76;83.84
34034;BME280;63481;52.588;22.472;2023-04-15T03:39:10;99628.88;;;8.73;83.91
34034;BME280;63481;52.588;22.472;2023-04-15T03:40:05;99628.96;;;8.76;83.69
34034;BME280;63481;52.588;22.472;2023-04-15T03:40:58;99632.83;;;8.76;83.59
34034;BME280;63481;52.588;22.472;2023-04-15T03:41:54;99629.90;;;8.75;83.45
34034;BME280;63481;52.588;22.472;2023-04-15T03:42:48;99629.54;;;8.74;83.49
34034;BME280;63481;52.588;22.472;2023-04-15T03:43:41;99632.16;;;8.74;83.82
34034;BME280;63481;52.588;22.472;2023-04-15T03:44:35;99628.98;;;8.75;83.74
34034;BME280;63481;52.588;22.472;2023-04-15T03:45:27;99630.72;;;8.74;84.03
34034;BME280;63481;52.588;22.472;2023-04-15T03:46:20;99636.16;;;8.73;84.07
34034;BME280;63481;52.588;22.472;2023-04-15T03:47:14;99636.16;;;8.74;84.24
34034;BME280;63481;52.588;22.472;2023-04-15T03:48:07;99637.46;;;8.73;84.10
34034;BME280;63481;52.588;22.472;2023-04-15T03:49:01;99638.30;;;8.70;84.50
34034;BME280;63481;52.588;22.472;2023-04-15T03:49:54;99641.94;;;8.69;84.56
34034;BME280;63481;52.588;22.472;2023-04-15T03:50:48;99638.91;;;8.67;84.76
34034;BME280;63481;52.588;22.472;2023-04-15T03:51:41;99639.26;;;8.64;85.09
34034;BME280;63481;52.588;22.472;2023-04-15T03:52:34;99641.21;;;8.65;85.28
34034;BME280;63481;52.588;22.472;2023-04-15T03:53:27;99641.02;;;8.64;85.01
34034;BME280;63481;52.588;22.472;2023-04-15T03:54:20;99640.44;;;8.63;85.21
34034;BME280;63481;52.588;22.472;2023-04-15T03:55:14;99645.27;;;8.61;85.69
34034;BME280;63481;52.588;22.472;2023-04-15T03:56:07;99638.00;;;8.60;85.18
34034;BME280;63481;52.588;22.472;2023-04-15T03:57:00;99640.60;;;8.63;85.13
34034;BME280;63481;52.588;22.472;2023-04-15T03:57:54;99641.36;;;8.64;85.27
34034;BME280;63481;52.588;22.472;2023-04-15T03:58:47;99644.00;;;8.63;85.50
34034;BME280;63481;52.588;22.472;2023-04-15T03:59:40;99650.59;;;8.62;85.26
34034;BME280;63481;52.588;22.472;2023-04-15T04:00:33;99650.91;;;8.63;85.42
34034;BME280;63481;52.588;22.472;2023-04-15T04:01:27;99654.50;;;8.62;85.67
34034;BME280;63481;52.588;22.472;2023-04-15T04:02:20;99656.45;;;8.60;86.15
34034;BME280;63481;52.588;22.472;2023-04-15T04:03:15;99651.97;;;8.62;85.52
34034;BME280;63481;52.588;22.472;2023-04-15T04:04:08;99654.09;;;8.63;85.42
34034;BME280;63481;52.588;22.472;2023-04-15T04:05:01;99656.02;;;8.63;85.47
34034;BME280;63481;52.588;22.472;2023-04-15T04:05:54;99654.52;;;8.61;85.71
34034;BME280;63481;52.588;22.472;2023-04-15T04:06:48;99652.83;;;8.62;85.43
34034;BME280;63481;52.588;22.472;2023-04-15T04:07:41;99653.48;;;8.65;85.14
34034;BME280;63481;52.588;22.472;2023-04-15T04:08:34;99653.39;;;8.68;85.06
34034;BME280;63481;52.588;22.472;2023-04-15T04:09:27;99652.57;;;8.69;85.07
34034;BME280;63481;52.588;22.472;2023-04-15T04:10:21;99647.19;;;8.69;85.12
34034;BME280;63481;52.588;22.472;2023-04-15T04:11:14;99654.21;;;8.69;85.05
34034;BME280;63481;52.588;22.472;2023-04-15T04:12:08;99653.64;;;8.68;85.07
34034;BME280;63481;52.588;22.472;2023-04-15T04:13:00;99648.48;;;8.70;84.89
34034;BME280;63481;52.588;22.472;2023-04-15T04:13:54;99657.60;;;8.71;84.86
34034;BME280;63481;52.588;22.472;2023-04-15T04:14:47;99656.91;;;8.69;84.80
34034;BME280;63481;52.588;22.472;2023-04-15T04:15:40;99659.45;;;8.69;84.63
34034;BME280;63481;52.588;22.472;2023-04-15T04:16:33;99656.05;;;8.68;85.01
34034;BME280;63481;52.588;22.472;2023-04-15T04:17:27;99650.83;;;8.67;84.43
34034;BME280;63481;52.588;22.472;2023-04-15T04:18:21;99652.93;;;8.70;84.30
34034;BME280;63481;52.588;22.472;2023-04-15T04:19:14;99658.95;;;8.71;84.77
34034;BME280;63481;52.588;22.472;2023-04-15T04:20:11;99658.50;;;8.72;84.82
34034;BME280;63481;52.588;22.472;2023-04-15T04:21:04;99654.61;;;8.71;84.92
34034;BME280;63481;52.588;22.472;2023-04-15T04:21:58;99659.80;;;8.70;85.06
34034;BME280;63481;52.588;22.472;2023-04-15T04:22:51;99659.60;;;8.70;85.20
34034;BME280;63481;52.588;22.472;2023-04-15T04:23:44;99657.60;;;8.71;85.01
34034;BME280;63481;52.588;22.472;2023-04-15T04:24:38;99659.23;;;8.70;84.94
34034;BME280;63481;52.588;22.472;2023-04-15T04:25:31;99659.11;;;8.70;84.97
34034;BME280;63481;52.588;22.472;2023-04-15T04:26:25;99663.37;;;8.69;84.82
34034;BME280;63481;52.588;22.472;2023-04-15T04:27:19;99664.59;;;8.70;85.09
34034;BME280;63481;52.588;22.472;2023-04-15T04:28:12;99659.56;;;8.68;85.09
34034;BME280;63481;52.588;22.472;2023-04-15T04:29:05;99663.45;;;8.68;85.21
34034;BME280;63481;52.588;22.472;2023-04-15T04:29:59;99659.77;;;8.67;85.27
34034;BME280;63481;52.588;22.472;2023-04-15T04:30:52;99660.48;;;8.64;85.49
34034;BME280;63481;52.588;22.472;2023-04-15T04:31:45;99658.88;;;8.64;85.68
34034;BME280;63481;52.588;22.472;2023-04-15T04:32:39;99661.65;;;8.65;85.98
34034;BME280;63481;52.588;22.472;2023-04-15T04:33:32;99661.90;;;8.65;85.90
34034;BME280;63481;52.588;22.472;2023-04-15T04:34:25;99667.02;;;8.66;85.83
34034;BME280;63481;52.588;22.472;2023-04-15T04:35:18;99662.18;;;8.65;85.88
34034;BME280;63481;52.588;22.472;2023-04-15T04:36:11;99664.38;;;8.68;85.87
34034;BME280;63481;52.588;22.472;2023-04-15T04:37:04;99663.41;;;8.66;86.23
34034;BME280;63481;52.588;22.472;2023-04-15T04:37:56;99664.95;;;8.62;86.48
34034;BME280;63481;52.588;22.472;2023-04-15T04:38:49;99662.98;;;8.64;86.18
34034;BME280;63481;52.588;22.472;2023-04-15T04:39:41;99661.17;;;8.63;86.37
34034;BME280;63481;52.588;22.472;2023-04-15T04:40:35;99664.77;;;8.63;86.41
34034;BME280;63481;52.588;22.472;2023-04-15T04:41:29;99665.02;;;8.63;86.48
34034;BME280;63481;52.588;22.472;2023-04-15T04:42:22;99663.34;;;8.63;86.64
34034;BME280;63481;52.588;22.472;2023-04-15T04:43:15;99664.13;;;8.63;86.51